»·PEaware :: N261MG KSLC-KEGE

N261MG :: KSLC-KEGE

FLIGHT INFORMATION

Flight Status: Arrived
Operator: Privately registered:
United States
More flights under this callsign
Pilot: Marty O. (15602)
Aircraft: ECLIPSE 500
(EA50)
More flights by this aircraft type
Origin: KSLC Salt Lake City Intl
United States
Destination: KEGE Eagle Co Regl
United States
More flights between these airports :: More routes between these airports
Route: +RUGGD1 EKR RLG
File this flight plan on PilotEdge
Remarks:
Altitude:
(Current/Filed)
31,000ft
Speed:
(Current/Filed)
380kts
Departed: 09-Oct-20 08:05 PM
Arrived: 09-Oct-20 09:13 PM
Distance/Time
Traveled:
242nm/1:08
Distance/Time
To Go:
Arrived

Flight Plot

Page will automatically refresh every two minutes.

Flight plan parsing failed; only flown route is shown


Map Options




Map Legend


Flown Route
Filed Route
Departure Airport
Arrival Airport
Navaid (VOR, NDB)
Fix

Horizontal Profiles

Position Reports

Time Latitude Longitude Heading Altitude Ground
Speed
09-Oct-20 19:40 40.775648 -111.958739 358 4230ft 0kts
09-Oct-20 19:41 40.775648 -111.958739 358 4230ft 0kts
09-Oct-20 19:42 40.775648 -111.958739 358 4230ft 0kts
09-Oct-20 19:43 40.775648 -111.958739 358 4230ft 0kts
09-Oct-20 19:44 40.775648 -111.958739 358 4230ft 0kts
09-Oct-20 19:45 40.775648 -111.958739 358 4230ft 0kts
09-Oct-20 19:46 40.775648 -111.958739 358 4230ft 0kts
09-Oct-20 19:47 40.775648 -111.958739 358 4230ft 0kts
09-Oct-20 19:48 40.775648 -111.958739 358 4230ft 0kts
09-Oct-20 19:49 40.775648 -111.958739 358 4230ft 0kts
09-Oct-20 19:50 40.775648 -111.958739 358 4230ft 0kts
09-Oct-20 19:51 40.775648 -111.958739 358 4230ft 0kts
09-Oct-20 19:52 40.775648 -111.958739 358 4230ft 0kts
09-Oct-20 19:53 40.775648 -111.958739 358 4230ft 0kts
09-Oct-20 19:54 40.777321 -111.959288 341 4230ft 6kts
09-Oct-20 19:55 40.779625 -111.960026 358 4230ft 7kts
09-Oct-20 19:55 40.781211 -111.960016 359 4230ft 16kts
09-Oct-20 19:57 40.787056 -111.960014 0 4230ft 16kts
09-Oct-20 19:57 40.790987 -111.960009 0 4230ft 15kts
09-Oct-20 19:59 40.796137 -111.960051 359 4230ft 6kts
09-Oct-20 19:59 40.798395 -111.960052 5 4230ft 6kts
09-Oct-20 20:00 40.799367 -111.960451 289 4230ft 0kts
09-Oct-20 20:01 40.799367 -111.960451 289 4230ft 0kts
09-Oct-20 20:02 40.799367 -111.960451 289 4230ft 0kts
09-Oct-20 20:03 40.799367 -111.960451 289 4230ft 0kts
09-Oct-20 20:04 40.795574 -111.962071 178 4230ft 61kts
09-Oct-20 20:05 40.761377 -111.972294 247 5275ft 182kts
09-Oct-20 20:06 40.784507 -112.032688 306 7770ft 211kts
09-Oct-20 20:07 40.838667 -112.042219 1 9997ft 249kts
09-Oct-20 20:08 40.916513 -112.033296 5 10019ft 298kts
09-Oct-20 20:09 41.001750 -112.022427 5 10028ft 304kts
09-Oct-20 20:10 41.062853 -111.968490 62 13028ft 264kts
09-Oct-20 20:11 41.093118 -111.887256 64 16020ft 236kts
09-Oct-20 20:12 41.119109 -111.814305 64 18665ft 204kts
09-Oct-20 20:13 41.120353 -111.749847 148 20383ft 189kts
09-Oct-20 20:14 41.078621 -111.706183 147 21999ft 193kts
09-Oct-20 20:15 41.035390 -111.660425 148 23552ft 196kts
09-Oct-20 20:16 40.989044 -111.611266 148 25093ft 198kts
09-Oct-20 20:17 40.941244 -111.560587 149 26538ft 201kts
09-Oct-20 20:18 40.892401 -111.508881 149 27854ft 206kts
09-Oct-20 20:19 40.845996 -111.459830 149 29040ft 210kts
09-Oct-20 20:20 40.798144 -111.409103 143 30155ft 217kts
09-Oct-20 20:21 40.776901 -111.327472 113 31133ft 238kts
09-Oct-20 20:22 40.756171 -111.235657 112 31186ft 285kts
09-Oct-20 20:23 40.732492 -111.131163 112 31195ft 302kts
09-Oct-20 20:24 40.708228 -111.024825 112 31202ft 305kts
09-Oct-20 20:25 40.683527 -110.917208 111 31202ft 308kts
09-Oct-20 20:26 40.658601 -110.809051 111 31203ft 309kts
09-Oct-20 20:27 40.633428 -110.700380 111 31202ft 309kts
09-Oct-20 20:28 40.608129 -110.591717 111 31188ft 309kts
09-Oct-20 20:29 40.582686 -110.482964 111 31169ft 309kts
09-Oct-20 20:30 40.556963 -110.373535 111 31143ft 309kts
09-Oct-20 20:31 40.532598 -110.265371 108 31102ft 310kts
09-Oct-20 20:32 40.511933 -110.155149 108 31082ft 310kts
09-Oct-20 20:33 40.491222 -110.045501 108 31081ft 310kts
09-Oct-20 20:34 40.470350 -109.935671 108 31082ft 310kts
09-Oct-20 20:35 40.446395 -109.810179 108 31084ft 327kts
09-Oct-20 20:36 40.418767 -109.666948 107 31085ft 364kts
09-Oct-20 20:37 40.389473 -109.515843 107 31085ft 387kts
09-Oct-20 20:38 40.362328 -109.376829 107 31086ft 400kts
09-Oct-20 20:39 40.334156 -109.233580 108 31080ft 408kts
09-Oct-20 20:40 40.305434 -109.088653 107 31081ft 414kts
09-Oct-20 20:41 40.276211 -108.942206 107 31082ft 418kts
09-Oct-20 20:42 40.246491 -108.794219 107 31082ft 421kts
09-Oct-20 20:43 40.216514 -108.646136 107 31102ft 423kts
09-Oct-20 20:44 40.186240 -108.497629 107 31153ft 423kts
09-Oct-20 20:45 40.155693 -108.348874 108 31167ft 424kts
09-Oct-20 20:46 40.124809 -108.199544 108 31161ft 424kts
09-Oct-20 20:47 40.093867 -108.050993 108 31162ft 424kts
09-Oct-20 20:48 40.066160 -107.901552 94 31165ft 428kts
09-Oct-20 20:49 40.060588 -107.746155 94 31164ft 429kts
09-Oct-20 20:50 40.054492 -107.590730 94 31163ft 429kts
09-Oct-20 20:51 40.047949 -107.430994 94 29512ft 453kts
09-Oct-20 20:52 40.041108 -107.268891 95 27124ft 440kts
09-Oct-20 20:53 40.034294 -107.112847 95 24869ft 423kts
09-Oct-20 20:54 40.027448 -106.961624 94 24198ft 418kts
09-Oct-20 20:55 40.020378 -106.809732 92 24200ft 423kts
09-Oct-20 20:56 40.019727 -106.657470 69 24120ft 419kts
09-Oct-20 20:57 40.056851 -106.517201 68 22997ft 378kts
09-Oct-20 20:58 40.067614 -106.404297 130 21591ft 283kts
09-Oct-20 20:59 40.005987 -106.411696 209 19929ft 262kts
09-Oct-20 21:00 39.937084 -106.455829 209 16364ft 276kts
09-Oct-20 21:01 39.872166 -106.496461 200 14018ft 219kts
09-Oct-20 21:02 39.821097 -106.518590 200 14012ft 196kts
09-Oct-20 21:03 39.762542 -106.543460 199 13802ft 216kts
09-Oct-20 21:04 39.708458 -106.566182 199 12895ft 176kts
09-Oct-20 21:05 39.684661 -106.612878 255 12843ft 168kts
09-Oct-20 21:06 39.670654 -106.666327 254 11133ft 157kts
09-Oct-20 21:07 39.662825 -106.720727 264 9158ft 150kts
09-Oct-20 21:08 39.658404 -106.768994 263 8416ft 126kts
09-Oct-20 21:09 39.653765 -106.811986 262 7956ft 117kts
09-Oct-20 21:10 39.649292 -106.853242 262 7385ft 111kts
09-Oct-20 21:11 39.645481 -106.892236 261 6712ft 100kts
09-Oct-20 21:12 39.642925 -106.909532 150 6548ft 0kts
09-Oct-20 21:13 39.641507 -106.909076 164 6548ft 5kts

Navigation Log

Ident Type
Flight plan parsing failed, navigation log unavailable